Time;durP1;ratioP1;P1;durP2;ratioP2;P2;SDS_P1;SDS_P2;PMS_P1;PMS_P2;Temp;Humidity;BMP_temperature;BMP_pressure;BME280_temperature;BME280_humidity;BME280_pressure;Samples;Min_cycle;Max_cycle;Signal;HPM_P1;HPM_P2
2022/12/27 00:02:19;;;;;;;5.68;1.75;;;2.50;99.90;;;;;;5066791;28;20711;-53
2022/12/27 00:04:44;;;;;;;8.13;1.90;;;2.50;99.90;;;;;;5075565;28;20070;-55
2022/12/27 00:07:10;;;;;;;6.07;1.48;;;2.40;99.90;;;;;;5063430;28;20489;-56
2022/12/27 00:09:35;;;;;;;11.25;2.10;;;2.40;99.90;;;;;;5070765;28;20111;-54
2022/12/27 00:12:01;;;;;;;5.78;1.98;;;2.40;99.90;;;;;;5062750;28;20439;-56
2022/12/27 00:14:27;;;;;;;11.82;2.17;;;2.40;99.90;;;;;;5074066;28;20039;-53
2022/12/27 00:16:52;;;;;;;7.85;2.22;;;2.40;99.90;;;;;;5056463;28;20107;-56
2022/12/27 00:19:18;;;;;;;5.97;1.80;;;2.40;99.90;;;;;;5073825;28;20404;-55
2022/12/27 00:21:44;;;;;;;8.65;2.40;;;2.40;99.90;;;;;;5062487;28;20091;-54
2022/12/27 00:24:09;;;;;;;6.13;1.85;;;2.40;99.90;;;;;;5071983;28;20032;-55
2022/12/27 00:26:36;;;;;;;6.90;1.98;;;2.40;99.90;;;;;;5071695;28;20020;-52
2022/12/27 00:29:02;;;;;;;5.85;1.17;;;2.40;99.90;;;;;;5072276;28;20074;-54
2022/12/27 00:31:29;;;;;;;8.15;1.98;;;2.40;99.90;;;;;;5072488;28;20074;-56
2022/12/27 00:33:57;;;;;;;5.75;1.75;;;2.40;99.90;;;;;;5068648;28;20028;-57
2022/12/27 00:36:26;;;;;;;8.48;2.08;;;2.40;99.90;;;;;;5073205;28;20027;-55
2022/12/27 00:38:52;;;;;;;15.43;2.60;;;2.40;99.90;;;;;;5071786;28;20063;-55
2022/12/27 00:41:18;;;;;;;9.43;1.85;;;2.40;99.90;;;;;;5068404;28;20492;-54
2022/12/27 00:43:44;;;;;;;11.50;2.15;;;2.40;99.90;;;;;;5074441;28;20442;-56
2022/12/27 00:46:10;;;;;;;3.58;1.33;;;2.40;99.90;;;;;;5074193;28;20025;-55
2022/12/27 00:48:36;;;;;;;6.40;1.85;;;2.30;99.90;;;;;;5076481;28;20021;-54
2022/12/27 00:51:11;;;;;;;8.95;1.90;;;2.30;99.90;;;;;;5074380;28;20043;-55
2022/12/27 00:53:37;;;;;;;9.23;2.72;;;2.30;99.90;;;;;;5073009;28;20028;-53
2022/12/27 00:56:13;;;;;;;5.88;1.40;;;2.30;99.90;;;;;;5072681;28;20024;-54
2022/12/27 00:58:38;;;;;;;10.88;1.70;;;2.30;99.90;;;;;;5066191;28;20021;-54
2022/12/27 01:01:16;;;;;;;7.57;2.25;;;2.30;99.90;;;;;;5077638;28;20446;-55
2022/12/27 01:03:43;;;;;;;5.32;1.63;;;2.30;99.90;;;;;;5067391;28;20497;-54
2022/12/27 01:06:11;;;;;;;6.63;1.77;;;2.30;99.90;;;;;;5074538;28;20025;-53
2022/12/27 01:08:37;;;;;;;6.47;1.55;;;2.30;99.90;;;;;;5065538;28;20028;-56
2022/12/27 01:11:04;;;;;;;5.18;1.75;;;2.30;99.90;;;;;;5071618;28;20029;-57
2022/12/27 01:13:30;;;;;;;8.93;1.85;;;2.30;99.90;;;;;;5072110;28;20514;-56
2022/12/27 01:15:56;;;;;;;3.75;1.92;;;2.30;99.90;;;;;;5072314;28;20369;-57
2022/12/27 01:18:21;;;;;;;9.05;1.98;;;2.30;99.90;;;;;;5078596;28;20039;-55
2022/12/27 01:20:47;;;;;;;6.22;1.73;;;2.30;99.90;;;;;;5071139;28;20488;-54
2022/12/27 01:23:13;;;;;;;9.18;1.73;;;2.30;99.90;;;;;;5070967;28;20111;-53
2022/12/27 01:25:38;;;;;;;5.68;1.60;;;2.30;99.90;;;;;;5070966;28;20027;-53
2022/12/27 01:28:04;;;;;;;6.13;1.63;;;2.30;99.90;;;;;;5075243;28;20060;-53
2022/12/27 01:30:30;;;;;;;7.82;1.90;;;2.30;99.90;;;;;;5078114;28;20036;-54
2022/12/27 01:32:55;;;;;;;6.57;1.88;;;2.30;99.90;;;;;;5070946;28;20037;-56
2022/12/27 01:35:21;;;;;;;3.90;1.67;;;2.20;99.90;;;;;;5071131;28;20028;-54
2022/12/27 01:37:46;;;;;;;3.97;2.03;;;2.30;99.90;;;;;;5058896;28;20024;-57
2022/12/27 01:40:13;;;;;;;6.70;2.10;;;2.30;99.90;;;;;;5077032;28;20050;-55
2022/12/27 01:42:51;;;;;;;4.97;1.50;;;2.20;99.90;;;;;;5073238;28;20203;-56
2022/12/27 01:45:41;;;;;;;7.20;1.92;;;2.20;99.90;;;;;;5071203;28;20490;-56
2022/12/27 01:48:23;;;;;;;6.55;2.20;;;2.20;99.90;;;;;;5063253;28;20346;-52
2022/12/27 01:50:51;;;;;;;3.47;1.52;;;2.20;99.90;;;;;;5076181;28;20055;-56
2022/12/27 01:53:20;;;;;;;4.03;1.52;;;2.30;99.90;;;;;;5076120;28;20039;-55
2022/12/27 01:55:55;;;;;;;4.03;1.67;;;2.30;99.90;;;;;;5074900;28;20429;-54
2022/12/27 01:58:31;;;;;;;6.20;1.80;;;2.30;99.90;;;;;;5069776;28;20056;-52
2022/12/27 02:00:57;;;;;;;5.07;2.00;;;2.30;99.90;;;;;;5064729;28;20104;-56
2022/12/27 02:03:49;;;;;;;4.60;1.58;;;2.40;99.90;;;;;;5065483;28;20024;-56
2022/12/27 02:06:17;;;;;;;5.68;1.42;;;2.30;99.90;;;;;;5062394;28;20049;-56
2022/12/27 02:08:56;;;;;;;7.65;1.85;;;2.30;99.90;;;;;;5072617;28;20028;-55
2022/12/27 02:14:12;;;;;;;4.25;1.88;;;2.30;99.90;;;;;;5077124;28;20550;-54
2022/12/27 02:16:37;;;;;;;8.15;1.95;;;2.30;99.90;;;;;;5072124;28;20399;-56
2022/12/27 02:19:11;;;;;;;6.85;1.92;;;2.30;99.90;;;;;;5056471;28;20028;-55
2022/12/27 02:22:00;;;;;;;10.52;2.42;;;2.30;99.90;;;;;;5067192;28;20032;-55
2022/12/27 02:24:40;;;;;;;8.75;2.20;;;2.40;99.90;;;;;;5067326;28;20055;-55
2022/12/27 02:27:23;;;;;;;5.60;2.22;;;2.30;99.90;;;;;;5073983;28;20020;-56
2022/12/27 02:29:57;;;;;;;3.97;1.73;;;2.40;99.90;;;;;;5069822;28;20040;-56
2022/12/27 02:33:05;;;;;;;6.07;1.50;;;2.40;99.90;;;;;;5071246;28;20099;-55
2022/12/27 02:35:36;;;;;;;4.32;2.03;;;2.40;99.90;;;;;;5075267;28;20051;-54
2022/12/27 02:38:26;;;;;;;5.72;2.28;;;2.30;99.90;;;;;;5066590;28;20389;-56
2022/12/27 02:53:02;;;;;;;8.90;2.35;;;2.30;99.90;;;;;;5076040;28;20043;-54
2022/12/27 02:58:35;;;;;;;10.05;2.47;;;2.40;99.90;;;;;;5074596;28;20111;-55
2022/12/27 03:04:45;;;;;;;7.30;1.88;;;2.40;99.90;;;;;;5074830;28;20031;-55
2022/12/27 03:07:25;;;;;;;9.45;1.80;;;2.40;99.90;;;;;;5061411;28;20116;-53
2022/12/27 03:16:04;;;;;;;8.63;2.00;;;2.30;99.90;;;;;;5062433;28;20094;-54
2022/12/27 03:18:34;;;;;;;;;;;2.30;99.90;;;;;;5069635;28;20198;-55
2022/12/27 03:26:36;;;;;;;7.00;2.08;;;2.20;99.90;;;;;;5064144;28;20078;-55
2022/12/27 03:34:44;;;;;;;6.50;1.90;;;2.20;99.90;;;;;;5061954;28;20110;-54
2022/12/27 03:40:33;;;;;;;8.18;2.45;;;2.20;99.90;;;;;;5063226;28;20439;-52
2022/12/27 03:43:10;;;;;;;7.72;3.13;;;2.30;99.90;;;;;;5056859;28;20035;-55
2022/12/27 03:49:02;;;;;;;7.63;2.58;;;2.30;99.90;;;;;;5064684;28;20031;-52
2022/12/27 03:51:34;;;;;;;8.00;2.75;;;2.40;99.90;;;;;;5074104;28;20027;-57
2022/12/27 03:54:07;;;;;;;5.30;2.05;;;2.40;99.90;;;;;;5070551;28;20115;-54
2022/12/27 03:56:32;;;;;;;5.93;2.60;;;2.40;99.90;;;;;;5052607;28;20043;-56
2022/12/27 03:58:59;;;;;;;14.38;3.00;;;2.50;99.90;;;;;;5072815;28;20468;-55
2022/12/27 04:01:25;;;;;;;5.93;2.10;;;2.50;99.90;;;;;;5064408;28;20028;-55
2022/12/27 04:03:50;;;;;;;7.35;2.65;;;2.50;99.90;;;;;;5073210;28;20093;-55
2022/12/27 04:06:16;;;;;;;5.93;2.45;;;2.60;99.90;;;;;;5071554;28;20028;-55
2022/12/27 04:36:02;;;;;;;4.65;2.30;;;2.70;99.90;;;;;;5071513;28;20173;-57
2022/12/27 04:38:28;;;;;;;8.73;2.92;;;2.70;99.90;;;;;;5062431;28;20103;-57
2022/12/27 04:55:12;;;;;;;12.43;3.00;;;2.60;99.90;;;;;;5072157;28;20056;-56
2022/12/27 04:57:38;;;;;;;4.85;2.50;;;2.60;99.90;;;;;;5068073;28;20097;-53
2022/12/27 05:02:49;;;;;;;5.28;2.53;;;2.60;99.90;;;;;;5066010;28;20085;-54
2022/12/27 05:05:15;;;;;;;6.18;2.97;;;2.60;99.90;;;;;;5072671;28;20021;-53
2022/12/27 05:15:56;;;;;;;6.20;3.05;;;2.70;99.90;;;;;;5074047;28;20032;-54
2022/12/27 05:18:22;;;;;;;6.40;2.72;;;2.70;99.90;;;;;;5071474;28;20028;-55
2022/12/27 05:20:48;;;;;;;4.60;2.55;;;2.70;99.90;;;;;;5063704;28;20032;-55
2022/12/27 05:25:57;;;;;;;3.50;2.08;;;2.70;99.90;;;;;;5068028;28;20063;-60
2022/12/27 05:28:23;;;;;;;5.82;1.98;;;2.70;99.90;;;;;;5071407;28;20020;-60
2022/12/27 05:30:49;;;;;;;3.90;2.80;;;2.70;99.90;;;;;;5050384;28;20091;-60
2022/12/27 05:33:15;;;;;;;6.43;2.42;;;2.70;99.90;;;;;;5070163;28;20039;-59
2022/12/27 05:35:40;;;;;;;6.07;2.20;;;2.70;99.90;;;;;;5070893;28;20079;-57
2022/12/27 05:38:06;;;;;;;5.90;2.28;;;2.70;99.90;;;;;;5071080;28;20035;-61
2022/12/27 05:40:32;;;;;;;5.45;1.98;;;2.70;99.90;;;;;;5071101;28;20043;-56
2022/12/27 05:42:59;;;;;;;8.18;2.45;;;2.80;99.90;;;;;;5070896;28;22422;-59
2022/12/27 05:45:25;;;;;;;6.78;2.13;;;2.80;99.90;;;;;;5070114;28;20476;-61
2022/12/27 05:47:50;;;;;;;2.58;1.73;;;2.80;99.90;;;;;;5070628;28;20039;-60
2022/12/27 05:50:16;;;;;;;5.85;2.10;;;2.80;99.90;;;;;;5070630;28;20446;-61
2022/12/27 05:52:41;;;;;;;6.60;2.30;;;2.80;99.90;;;;;;5069639;28;20036;-60
2022/12/27 05:55:08;;;;;;;6.90;2.33;;;2.80;99.90;;;;;;5070074;28;20059;-60
2022/12/27 05:57:33;;;;;;;11.10;2.25;;;2.80;99.90;;;;;;5070740;28;20070;-61
2022/12/27 05:59:59;;;;;;;7.57;2.67;;;2.90;99.90;;;;;;5069813;28;20033;-60
2022/12/27 06:02:24;;;;;;;3.92;2.35;;;2.90;99.90;;;;;;5069389;28;20027;-61
2022/12/27 06:04:50;;;;;;;8.15;2.40;;;2.90;99.90;;;;;;5070172;28;20077;-59
2022/12/27 06:07:16;;;;;;;8.60;1.98;;;2.90;99.90;;;;;;5069682;28;20036;-60
2022/12/27 06:09:42;;;;;;;6.60;2.00;;;2.90;99.90;;;;;;5068907;28;20024;-61
2022/12/27 06:12:07;;;;;;;6.72;2.45;;;2.90;99.90;;;;;;5070552;28;20123;-59
2022/12/27 06:14:33;;;;;;;6.20;2.20;;;2.90;99.90;;;;;;5056032;28;20028;-61
2022/12/27 06:16:59;;;;;;;6.25;1.88;;;2.90;99.90;;;;;;5070491;28;20426;-60
2022/12/27 06:19:24;;;;;;;3.55;2.03;;;2.90;99.90;;;;;;5070682;28;20102;-61
2022/12/27 06:21:50;;;;;;;4.88;2.53;;;2.90;99.90;;;;;;5070288;28;20028;-58
2022/12/27 06:24:16;;;;;;;6.18;2.30;;;2.90;99.90;;;;;;5069859;28;20021;-60
2022/12/27 06:26:41;;;;;;;5.20;2.55;;;2.90;99.90;;;;;;5069991;28;20025;-60
2022/12/27 06:29:10;;;;;;;5.70;2.30;;;2.90;99.90;;;;;;5066881;28;20483;-61
2022/12/27 06:31:36;;;;;;;6.90;2.80;;;2.90;99.90;;;;;;5070111;28;20074;-60
2022/12/27 06:34:02;;;;;;;4.47;2.30;;;2.90;99.90;;;;;;5069893;28;20024;-61
2022/12/27 06:36:31;;;;;;;8.45;2.92;;;3.00;99.90;;;;;;5051668;28;20481;-60
2022/12/27 06:38:57;;;;;;;5.20;2.30;;;2.90;99.90;;;;;;5069027;28;20074;-61
2022/12/27 06:41:23;;;;;;;4.18;2.47;;;2.90;99.90;;;;;;5069459;28;20023;-61
2022/12/27 06:43:54;;;;;;;5.22;2.40;;;2.90;99.90;;;;;;5069298;28;20017;-61
2022/12/27 06:46:20;;;;;;;7.47;2.47;;;2.90;99.90;;;;;;5068341;28;20384;-61
2022/12/27 06:48:46;;;;;;;10.48;3.10;;;2.90;99.90;;;;;;5069466;28;20028;-60
2022/12/27 06:51:13;;;;;;;4.32;2.25;;;2.90;99.90;;;;;;5069499;28;20024;-61
2022/12/27 06:53:39;;;;;;;5.55;2.50;;;2.90;99.90;;;;;;5069147;28;20115;-61
2022/12/27 06:56:07;;;;;;;6.82;2.35;;;2.90;99.90;;;;;;5051199;28;20245;-61
2022/12/27 06:58:32;;;;;;;3.15;2.00;;;2.90;99.90;;;;;;5061699;28;20051;-61
2022/12/27 07:01:09;;;;;;;7.80;1.80;;;2.90;99.90;;;;;;5068763;28;20483;-61
2022/12/27 07:03:35;;;;;;;9.13;2.83;;;3.00;99.90;;;;;;5067569;28;20024;-61
2022/12/27 07:06:05;;;;;;;5.45;2.30;;;3.00;99.90;;;;;;5068665;28;20506;-61
2022/12/27 07:08:31;;;;;;;4.07;2.53;;;2.90;99.90;;;;;;5067303;28;20021;-60
2022/12/27 07:11:02;;;;;;;7.35;2.08;;;2.90;99.90;;;;;;5051404;28;20036;-61
2022/12/27 07:13:32;;;;;;;7.13;2.10;;;2.90;99.90;;;;;;5068977;28;20044;-61
2022/12/27 07:15:57;;;;;;;5.65;2.47;;;2.90;99.90;;;;;;5064291;28;20760;-61
2022/12/27 07:18:22;;;;;;;6.95;1.70;;;2.90;99.90;;;;;;5069026;28;20021;-61
2022/12/27 07:20:48;;;;;;;3.63;1.55;;;2.90;99.90;;;;;;5069316;28;20074;-61
2022/12/27 07:23:14;;;;;;;1.95;1.48;;;2.80;99.90;;;;;;5068369;28;20058;-61
2022/12/27 07:25:40;;;;;;;5.43;1.77;;;2.80;99.90;;;;;;5068027;28;20028;-60
2022/12/27 07:28:05;;;;;;;4.75;1.27;;;2.80;99.90;;;;;;5051053;28;20511;-61
2022/12/27 07:30:31;;;;;;;4.35;1.45;;;2.80;99.90;;;;;;5069409;28;20495;-61
2022/12/27 07:32:56;;;;;;;4.20;1.50;;;2.80;99.90;;;;;;5069228;28;20089;-59
2022/12/27 07:35:22;;;;;;;6.57;2.20;;;2.80;99.90;;;;;;5069007;28;20387;-60
2022/12/27 07:37:48;;;;;;;3.00;1.00;;;2.70;99.90;;;;;;5068471;28;20028;-61
2022/12/27 07:40:13;;;;;;;4.85;1.55;;;2.70;99.90;;;;;;5069165;28;20104;-61
2022/12/27 07:42:39;;;;;;;5.60;1.80;;;2.70;99.90;;;;;;5068384;28;20055;-61
2022/12/27 07:45:05;;;;;;;8.50;1.95;;;2.70;99.90;;;;;;5050263;28;20028;-61
2022/12/27 07:47:30;;;;;;;3.88;1.58;;;2.70;99.90;;;;;;5062338;28;20025;-60
2022/12/27 07:49:56;;;;;;;8.57;1.77;;;2.70;99.90;;;;;;5050921;28;20031;-60
2022/12/27 07:52:21;;;;;;;5.57;1.80;;;2.70;99.90;;;;;;5068524;28;20028;-60
2022/12/27 07:54:47;;;;;;;5.90;1.60;;;2.70;99.90;;;;;;5068504;28;20035;-61
2022/12/27 07:57:12;;;;;;;9.05;2.20;;;2.70;99.90;;;;;;5068818;28;20024;-61
2022/12/27 07:59:38;;;;;;;9.45;2.00;;;2.70;99.90;;;;;;5068510;28;20039;-60
2022/12/27 08:02:03;;;;;;;7.97;2.35;;;2.80;99.90;;;;;;5066836;28;20016;-60
2022/12/27 08:04:30;;;;;;;4.63;1.98;;;2.80;99.90;;;;;;5068743;28;20135;-59
2022/12/27 08:07:23;;;;;;;6.03;2.65;;;2.80;99.90;;;;;;5068681;28;20013;-59
2022/12/27 08:09:49;;;;;;;4.63;1.65;;;2.80;99.90;;;;;;5061650;28;20033;-61
2022/12/27 08:12:14;;;;;;;2.75;1.60;;;2.80;99.90;;;;;;5069320;28;20016;-59
2022/12/27 08:14:40;;;;;;;6.22;2.53;;;2.80;99.90;;;;;;5050416;28;20025;-61
2022/12/27 08:17:22;;;;;;;7.75;1.95;;;2.80;99.90;;;;;;5068659;28;20025;-59
2022/12/27 08:19:50;;;;;;;6.45;1.50;;;2.80;99.90;;;;;;5068694;28;20112;-57
2022/12/27 08:22:16;;;;;;;2.53;1.50;;;2.80;99.90;;;;;;5068343;28;20031;-57
2022/12/27 08:24:42;;;;;;;6.05;1.58;;;2.80;99.90;;;;;;5068228;28;20380;-59
2022/12/27 08:27:08;;;;;;;6.63;1.73;;;2.70;99.90;;;;;;5068633;28;20069;-60
2022/12/27 08:29:34;;;;;;;3.03;2.05;;;2.70;99.90;;;;;;5068708;28;20036;-59
2022/12/27 08:31:59;;;;;;;5.80;1.55;;;2.80;99.90;;;;;;5067069;28;20024;-60
2022/12/27 08:34:25;;;;;;;6.88;1.92;;;2.80;99.90;;;;;;5071759;28;20044;-61
2022/12/27 08:36:51;;;;;;;4.07;2.00;;;2.80;99.90;;;;;;5071118;28;20106;-60
2022/12/27 08:39:17;;;;;;;7.70;2.40;;;2.80;99.90;;;;;;5072128;28;20108;-60
2022/12/27 08:41:43;;;;;;;6.80;1.70;;;2.80;99.90;;;;;;5071789;28;20588;-58
2022/12/27 08:44:09;;;;;;;8.55;2.22;;;2.80;99.90;;;;;;5071427;28;20033;-59
2022/12/27 08:46:36;;;;;;;5.55;2.15;;;2.90;99.90;;;;;;5053494;28;20442;-60
2022/12/27 08:49:02;;;;;;;2.70;1.70;;;2.90;99.90;;;;;;5072450;28;20021;-60
2022/12/27 08:51:28;;;;;;;8.55;2.38;;;2.90;99.90;;;;;;5071770;28;20074;-58
2022/12/27 08:53:53;;;;;;;7.28;1.90;;;3.00;99.90;;;;;;5072043;28;20025;-59
2022/12/27 08:56:19;;;;;;;10.10;2.35;;;3.00;99.90;;;;;;5071032;28;20048;-60
2022/12/27 08:58:47;;;;;;;8.38;2.00;;;2.90;99.90;;;;;;5071814;28;20020;-60
2022/12/27 09:01:12;;;;;;;6.47;1.83;;;3.00;99.90;;;;;;5071498;28;20032;-61
2022/12/27 09:03:38;;;;;;;3.80;1.65;;;3.00;99.90;;;;;;5071816;28;20032;-58
2022/12/27 09:06:18;;;;;;;4.35;1.92;;;2.90;99.90;;;;;;5070767;28;20031;-61
2022/12/27 09:08:46;;;;;;;6.47;1.98;;;3.00;99.90;;;;;;5065645;28;20633;-60
2022/12/27 09:11:14;;;;;;;5.80;1.88;;;3.00;99.90;;;;;;5053158;28;20500;-60
2022/12/27 09:13:40;;;;;;;9.27;2.97;;;2.90;99.90;;;;;;5071351;28;20028;-59
2022/12/27 09:16:12;;;;;;;5.45;2.10;;;2.90;99.90;;;;;;5070909;28;20025;-61
2022/12/27 09:18:38;;;;;;;10.57;2.30;;;3.00;99.90;;;;;;5072738;28;20024;-61
2022/12/27 09:21:05;;;;;;;3.60;1.52;;;3.10;99.90;;;;;;5072180;28;20036;-60
2022/12/27 09:23:31;;;;;;;4.68;1.65;;;3.10;99.90;;;;;;5085479;28;20028;-61
2022/12/27 09:25:56;;;;;;;7.03;1.80;;;3.10;99.90;;;;;;5071056;28;20031;-58
2022/12/27 09:28:23;;;;;;;5.13;2.92;;;3.00;99.90;;;;;;5071300;28;20029;-59
2022/12/27 09:30:48;;;;;;;7.03;2.63;;;3.10;99.90;;;;;;5072954;28;20043;-60
2022/12/27 09:33:14;;;;;;;5.20;2.50;;;3.10;99.90;;;;;;5071665;28;20099;-60
2022/12/27 09:35:39;;;;;;;7.10;2.38;;;3.10;99.90;;;;;;5076929;28;20388;-60
2022/12/27 09:38:05;;;;;;;8.18;2.67;;;3.20;99.90;;;;;;5071424;28;20472;-61
2022/12/27 09:40:31;;;;;;;8.20;2.30;;;3.30;99.90;;;;;;5071227;28;20052;-59
2022/12/27 09:43:16;;;;;;;7.88;2.20;;;3.30;99.90;;;;;;5070315;28;20078;-60
2022/12/27 09:45:45;;;;;;;6.90;2.55;;;3.40;99.90;;;;;;5064086;28;20096;-60
2022/12/27 09:48:32;;;;;;;8.05;2.75;;;3.40;99.90;;;;;;5070569;28;20021;-59
2022/12/27 09:51:05;;;;;;;13.55;2.88;;;3.40;99.90;;;;;;5070915;28;20026;-61
2022/12/27 09:53:47;;;;;;;6.88;2.25;;;3.50;99.90;;;;;;5062506;28;20032;-57
2022/12/27 09:56:28;;;;;;;9.65;2.58;;;3.50;99.90;;;;;;5070493;28;20032;-61
2022/12/27 09:59:03;;;;;;;9.10;2.33;;;3.50;99.90;;;;;;5052711;28;20050;-60
2022/12/27 10:01:35;;;;;;;6.30;2.33;;;3.50;99.90;;;;;;5070604;28;20066;-61
2022/12/27 10:04:02;;;;;;;7.30;2.40;;;3.50;99.90;;;;;;5070553;28;20016;-61
2022/12/27 10:06:49;;;;;;;9.52;2.38;;;3.50;99.90;;;;;;5070627;28;20443;-61
2022/12/27 10:09:17;;;;;;;8.13;2.55;;;3.50;99.90;;;;;;5070934;28;20025;-60
2022/12/27 10:11:59;;;;;;;3.88;2.03;;;3.70;99.90;;;;;;5070306;28;20036;-60
2022/12/27 10:14:45;;;;;;;8.10;2.97;;;3.80;99.90;;;;;;5070301;28;20074;-60
2022/12/27 10:17:42;;;;;;;7.57;2.47;;;3.80;99.90;;;;;;5052576;28;20489;-61
2022/12/27 10:20:17;;;;;;;11.57;2.35;;;3.90;99.90;;;;;;5070142;28;20032;-59
2022/12/27 10:22:53;;;;;;;8.20;2.42;;;4.00;99.90;;;;;;5070376;28;20025;-61
2022/12/27 10:25:25;;;;;;;6.82;2.42;;;4.10;99.90;;;;;;5069845;28;20046;-60
2022/12/27 10:27:57;;;;;;;7.05;2.30;;;4.10;99.90;;;;;;5070205;28;20035;-60
2022/12/27 10:30:23;;;;;;;6.35;2.20;;;4.10;99.90;;;;;;5070397;28;20020;-60
2022/12/27 10:32:49;;;;;;;7.20;2.42;;;4.00;99.90;;;;;;5069996;28;20073;-61
2022/12/27 10:35:18;;;;;;;3.97;1.85;;;4.00;99.90;;;;;;5069535;28;20086;-61
2022/12/27 10:37:45;;;;;;;7.57;2.05;;;4.00;99.90;;;;;;5052024;28;20024;-60
2022/12/27 10:40:24;;;;;;;5.28;2.05;;;4.00;99.90;;;;;;5069714;28;20024;-60
2022/12/27 10:43:01;;;;;;;10.98;2.22;;;4.00;99.90;;;;;;5069631;28;20051;-61
2022/12/27 10:45:37;;;;;;;7.75;2.58;;;4.10;99.90;;;;;;5069776;28;20029;-60
2022/12/27 10:48:29;;;;;;;5.75;1.90;;;4.00;99.90;;;;;;5069047;28;20020;-61
2022/12/27 10:51:05;;;;;;;9.25;2.30;;;4.00;99.90;;;;;;5058325;28;20043;-60
2022/12/27 10:53:47;;;;;;;13.38;2.33;;;4.00;99.90;;;;;;5061568;28;20052;-61
2022/12/27 10:56:31;;;;;;;11.73;2.25;;;4.00;99.90;;;;;;5068448;28;20112;-60
2022/12/27 10:59:25;;;;;;;6.00;2.00;;;4.00;99.90;;;;;;5069671;28;20032;-58
2022/12/27 11:02:00;;;;;;;6.95;1.63;;;4.00;99.90;;;;;;5068791;28;20021;-62
2022/12/27 11:04:27;;;;;;;5.03;2.23;;;4.00;99.90;;;;;;5068955;28;20116;-57
2022/12/27 11:07:00;;;;;;;6.55;2.90;;;4.00;99.90;;;;;;5070945;28;20017;-60
2022/12/27 11:09:42;;;;;;;9.10;2.67;;;4.10;99.90;;;;;;5069057;28;20135;-59
2022/12/27 11:12:28;;;;;;;4.57;2.13;;;4.10;99.90;;;;;;5067742;28;20036;-59
2022/12/27 11:15:14;;;;;;;10.88;2.65;;;4.20;99.90;;;;;;5069177;28;20564;-59
2022/12/27 11:17:46;;;;;;;8.27;2.28;;;4.20;99.90;;;;;;5064383;28;20035;-61
2022/12/27 11:20:19;;;;;;;5.07;2.28;;;4.30;99.90;;;;;;5069271;28;20067;-61
2022/12/27 11:23:08;;;;;;;6.05;2.55;;;4.40;99.90;;;;;;5070898;28;20029;-60
2022/12/27 11:25:35;;;;;;;8.27;1.75;;;4.50;99.90;;;;;;5062781;22;20108;-56
2022/12/27 11:28:03;;;;;;;6.10;2.10;;;4.60;99.90;;;;;;5070689;28;20554;-53
2022/12/27 11:30:33;;;;;;;7.72;1.92;;;4.70;99.90;;;;;;5050621;28;20032;-55
2022/12/27 11:33:05;;;;;;;5.35;2.08;;;4.70;99.90;;;;;;5072225;28;20037;-56
2022/12/27 11:35:35;;;;;;;8.25;1.35;;;4.70;99.90;;;;;;5065309;28;20020;-56
2022/12/27 11:38:00;;;;;;;7.13;1.65;;;4.70;99.90;;;;;;5074729;28;20074;-56
2022/12/27 11:40:34;;;;;;;8.55;1.77;;;4.60;99.90;;;;;;5069139;28;20033;-56
2022/12/27 11:43:10;;;;;;;5.78;2.03;;;4.60;99.90;;;;;;5036178;28;20315;-55
2022/12/27 11:45:43;;;;;;;8.73;2.00;;;4.60;99.90;;;;;;5061708;28;20028;-57
2022/12/27 11:48:27;;;;;;;10.13;2.03;;;4.60;99.90;;;;;;5070128;28;20736;-56
2022/12/27 11:50:59;;;;;;;4.22;2.05;;;4.50;99.90;;;;;;5075332;28;20040;-56
2022/12/27 11:53:57;;;;;;;12.35;3.08;;;4.60;99.90;;;;;;5050095;28;20033;-57
2022/12/27 11:56:26;;;;;;;6.15;2.67;;;4.60;99.90;;;;;;5043010;28;20056;-55
2022/12/27 11:59:16;;;;;;;6.55;2.35;;;4.70;99.90;;;;;;5051518;28;20033;-53
2022/12/27 12:01:54;;;;;;;7.55;1.98;;;4.70;99.90;;;;;;5052401;28;20036;-56
2022/12/27 12:04:34;;;;;;;11.43;1.90;;;4.70;99.90;;;;;;5068962;28;20074;-56
2022/12/27 12:07:05;;;;;;;8.00;1.63;;;4.70;99.90;;;;;;5068711;28;20568;-56
2022/12/27 12:09:55;;;;;;;7.93;1.65;;;4.80;99.90;;;;;;5065712;28;20028;-55
2022/12/27 12:12:39;;;;;;;9.73;2.33;;;4.80;99.90;;;;;;5071468;28;20028;-54
2022/12/27 12:15:27;;;;;;;8.02;2.42;;;4.90;99.90;;;;;;5054190;28;20398;-54
2022/12/27 12:18:17;;;;;;;10.55;2.20;;;4.90;99.90;;;;;;5067771;28;20043;-51
2022/12/27 12:20:52;;;;;;;9.80;2.53;;;5.00;99.90;;;;;;5066289;28;20027;-52
2022/12/27 12:24:02;;;;;;;7.75;1.88;;;5.10;99.90;;;;;;5072555;28;20035;-53
2022/12/27 12:26:52;;;;;;;8.73;2.58;;;5.10;99.90;;;;;;5071805;28;20116;-56
2022/12/27 12:29:46;;;;;;;6.50;1.48;;;5.10;99.90;;;;;;5070633;28;20020;-56
2022/12/27 12:32:25;;;;;;;6.20;1.35;;;5.10;99.90;;;;;;5071837;28;20043;-57
2022/12/27 12:35:24;;;;;;;9.13;1.58;;;5.10;99.90;;;;;;5066025;28;20056;-58
2022/12/27 12:38:15;;;;;;;6.65;1.38;;;5.20;99.90;;;;;;5070777;28;20103;-53
2022/12/27 12:41:08;;;;;;;5.90;1.52;;;5.20;99.90;;;;;;5069587;28;20029;-56
2022/12/27 12:43:51;;;;;;;3.67;1.63;;;5.10;99.90;;;;;;5072261;28;20487;-55
2022/12/27 12:46:45;;;;;;;6.35;1.85;;;5.10;99.90;;;;;;5071596;28;20093;-55
2022/12/27 12:49:43;;;;;;;7.85;2.38;;;5.20;99.90;;;;;;5071840;28;20399;-55
2022/12/27 12:52:50;;;;;;;6.95;1.98;;;5.10;99.90;;;;;;5070258;28;20020;-53
2022/12/27 12:55:52;;;;;;;6.75;1.63;;;5.10;99.90;;;;;;5040383;28;20124;-52
2022/12/27 12:58:43;;;;;;;3.85;1.92;;;5.10;99.90;;;;;;5067314;28;20497;-55
2022/12/27 13:01:47;;;;;;;6.35;1.90;;;5.10;99.90;;;;;;5051396;28;20032;-53
2022/12/27 13:04:55;;;;;;;6.82;1.98;;;5.00;99.90;;;;;;5056706;28;20127;-53
2022/12/27 13:07:44;;;;;;;9.68;2.25;;;5.00;99.90;;;;;;5070156;28;20491;-54
2022/12/27 13:10:50;;;;;;;6.68;1.92;;;4.90;99.90;;;;;;5076115;28;20032;-53
2022/12/27 13:13:16;;;;;;;3.07;1.83;;;4.90;99.90;;;;;;5071596;28;20505;-55
2022/12/27 13:15:55;;;;;;;7.13;1.88;;;4.80;99.90;;;;;;5058710;28;20271;-52
2022/12/27 13:18:24;;;;;;;3.60;1.67;;;4.80;99.90;;;;;;5053361;28;20041;-52
2022/12/27 13:21:05;;;;;;;4.03;1.88;;;4.80;99.90;;;;;;5073643;28;20043;-51
2022/12/27 13:23:55;;;;;;;9.02;1.95;;;4.70;99.90;;;;;;5074361;28;20031;-53
2022/12/27 13:27:11;;;;;;;9.07;4.30;;;4.70;99.90;;;;;;5070817;28;20499;-52
2022/12/27 13:29:44;;;;;;;9.40;4.60;;;4.70;99.90;;;;;;5051820;28;20049;-51
2022/12/27 13:32:38;;;;;;;14.90;8.75;;;4.60;99.90;;;;;;5072725;28;20115;-56
2022/12/27 13:35:21;;;;;;;15.57;9.07;;;4.60;99.90;;;;;;5070972;28;20033;-54
2022/12/27 13:38:18;;;;;;;17.20;8.93;;;4.50;99.90;;;;;;5048221;28;20050;-53
2022/12/27 13:41:01;;;;;;;9.93;3.70;;;4.50;99.90;;;;;;5068392;28;20040;-55
2022/12/27 13:43:41;;;;;;;9.43;3.17;;;4.40;99.90;;;;;;5070931;28;20074;-55
2022/12/27 13:46:33;;;;;;;8.15;4.28;;;4.40;99.90;;;;;;5070512;28;20024;-53
2022/12/27 13:49:17;;;;;;;6.40;4.97;;;4.40;99.90;;;;;;5072018;28;20032;-53
2022/12/27 13:51:44;;;;;;;8.20;4.45;;;4.40;99.90;;;;;;5064755;28;20093;-54
2022/12/27 13:54:43;;;;;;;10.02;3.90;;;4.40;99.90;;;;;;5071122;28;20029;-51
2022/12/27 13:57:53;;;;;;;6.88;4.05;;;4.40;99.90;;;;;;5072771;28;20089;-52
2022/12/27 14:00:20;;;;;;;10.45;4.55;;;4.40;99.90;;;;;;5032132;28;20050;-51
2022/12/27 14:03:24;;;;;;;6.72;3.30;;;4.30;99.90;;;;;;5070953;28;20450;-53
2022/12/27 14:06:13;;;;;;;7.25;2.63;;;4.30;99.90;;;;;;4985657;28;20152;-54
2022/12/27 14:09:21;;;;;;;3.80;3.15;;;4.30;99.90;;;;;;4987670;28;20109;-52
2022/12/27 14:12:28;;;;;;;6.72;2.80;;;4.30;99.90;;;;;;5053873;28;20036;-52
2022/12/27 14:14:57;;;;;;;11.07;5.75;;;4.40;99.90;;;;;;5064331;28;20086;-50
2022/12/27 14:17:51;;;;;;;13.02;4.20;;;4.30;99.90;;;;;;5052135;28;20031;-51
2022/12/27 14:20:48;;;;;;;4.63;2.67;;;4.30;99.90;;;;;;5070331;28;20028;-53
2022/12/27 14:23:40;;;;;;;7.45;2.80;;;4.30;99.90;;;;;;5066859;28;20031;-53
2022/12/27 14:26:25;;;;;;;6.00;2.45;;;4.20;99.90;;;;;;5037873;28;20058;-50
2022/12/27 14:29:10;;;;;;;7.47;1.85;;;4.20;99.90;;;;;;5070118;28;20468;-51
2022/12/27 14:32:08;;;;;;;7.80;2.30;;;4.10;99.90;;;;;;5065177;28;20134;-50
2022/12/27 14:35:05;;;;;;;10.23;2.20;;;4.00;99.90;;;;;;5062335;28;20059;-51
2022/12/27 14:37:55;;;;;;;4.03;1.48;;;4.00;99.90;;;;;;5046320;28;20047;-52
2022/12/27 14:40:56;;;;;;;10.70;2.03;;;4.00;99.90;;;;;;5069987;28;20039;-52
2022/12/27 14:44:09;;;;;;;3.88;1.75;;;3.90;99.90;;;;;;5069848;28;20019;-53
2022/12/27 14:46:49;;;;;;;8.57;2.28;;;3.80;99.90;;;;;;5027663;28;20119;-53
2022/12/27 14:49:54;;;;;;;7.65;1.98;;;3.80;99.90;;;;;;5069638;28;20027;-54
2022/12/27 14:52:42;;;;;;;9.13;2.28;;;3.70;99.90;;;;;;5069852;28;20033;-51
2022/12/27 14:55:07;;;;;;;6.85;2.17;;;3.70;99.90;;;;;;5065492;28;20078;-53
2022/12/27 14:57:54;;;;;;;5.43;2.45;;;3.60;99.90;;;;;;5071956;28;20036;-53
2022/12/27 15:00:23;;;;;;;5.05;1.92;;;3.60;99.90;;;;;;5068455;28;20032;-53
2022/12/27 15:03:19;;;;;;;12.35;4.22;;;3.50;99.90;;;;;;5075743;28;20031;-53
2022/12/27 15:05:59;;;;;;;7.70;2.28;;;3.40;99.90;;;;;;5074079;28;20024;-55
2022/12/27 15:08:57;;;;;;;7.03;2.17;;;3.40;99.90;;;;;;5052048;28;20408;-54
2022/12/27 15:11:28;;;;;;;6.82;2.22;;;3.30;99.90;;;;;;5069813;28;20114;-50
2022/12/27 15:14:07;;;;;;;5.40;2.70;;;3.30;99.90;;;;;;5064931;28;20034;-53